Arizona, Louisiana
Current Conditions -  °F | °C
As of 1:56 PM on Monday 24 Nov 2014 (Local Time) from KMNE Reporting Station
Clear Clear  
Wind Chill: 63°   Ceiling: Unl
Heat Index: 63°   Visibility: 10mi
Dew Point: 28°   Wind: 9mph
Humidity: 27%   Direction: 310°NW
Pressure: 29.99"   Gusts: 17mph
Location:  32.7443°N, 92.9625°W
Report Text: KMNE 241956Z AUTO 31008G15KT 10SM CLR 17/M02 A2999 RMK AO2
Loading
Personal Weather Stations






























Interactive Weather Map New forecast layout! Learn more

10-Day Weather Forecast

Advertisements
Track Severe Weather on mobile